.
WxDataArchive / Data Records for 2008-03-07
2008-03-06 March 2008 2008-03-08

Data Records for Friday, 07 March 2008

Time	Temp	Chill	HIndex	Humid	Dewpt	 Wind 	HiWind	WindDir	Rain 	Barom 
-----	----	-----	------	-----	-----	------	------	-------	-----	----- 
00:00	24.5	24.5	24.5	84	20.4	0	0	---	0.00	30.206 
00:05	24.5	24.5	24.5	84	20.4	0	0	---	0.00	30.207 
00:10	24.4	24.4	24.4	84	20.3	0	0	---	0.00	30.206 
00:15	24.2	24.2	24.2	84	20.1	0	0	---	0.00	30.208 
00:20	24.2	24.2	24.2	85	20.4	0	0	---	0.00	30.208 
00:25	24.2	24.2	24.2	85	20.4	0	0	---	0.00	30.207 
00:30	24.1	24.1	24.1	85	20.3	0	0	---	0.00	30.205 
00:35	24.1	24.1	24.1	85	20.3	0	0	---	0.00	30.203 
00:40	23.9	23.9	23.9	85	20.1	0	0	---	0.00	30.202 
00:45	24.1	24.1	24.1	85	20.3	0	0	---	0.00	30.194 
00:50	24.2	24.2	24.2	85	20.4	0	0	---	0.00	30.191 
00:55	24.5	24.5	24.5	85	20.6	0	0	---	0.00	30.192 
01:00	24.8	24.8	24.8	84	20.7	0	0	---	0.00	30.193 
01:05	25.0	25.0	25.0	84	20.9	0	0	---	0.00	30.196 
01:10	25.1	25.1	25.1	83	20.7	0	1	270	0.00	30.203 
01:15	25.3	25.3	25.3	82	20.6	0	0	---	0.00	30.200 
01:20	25.4	25.4	25.4	81	20.4	0	1	270	0.00	30.195 
01:25	25.4	25.4	25.4	81	20.4	0	0	---	0.00	30.199 
01:30	25.3	25.3	25.3	80	20.0	0	1	270	0.00	30.194 
01:35	25.3	25.3	25.3	80	20.0	0	0	---	0.00	30.191 
01:40	25.1	25.1	25.1	79	19.5	0	0	---	0.00	30.191 
01:45	25.3	25.3	25.3	79	19.7	0	1	270	0.00	30.190 
01:50	25.3	25.3	25.3	79	19.7	0	1	270	0.00	30.190 
01:55	25.3	25.3	25.3	78	19.4	0	1	270	0.00	30.189 
02:00	25.3	25.3	25.3	78	19.4	0	1	270	0.00	30.189 
02:05	25.3	25.3	25.3	78	19.4	0	1	270	0.00	30.189 
02:10	25.4	25.4	25.4	77	19.2	0	1	270	0.00	30.189 
02:15	25.4	25.4	25.4	77	19.2	0	3	270	0.00	30.188 
02:20	25.4	25.4	25.4	77	19.2	0	1	270	0.00	30.187 
02:25	25.6	25.6	25.6	77	19.4	0	1	270	0.00	30.186 
02:30	25.7	25.7	25.7	77	19.5	0	2	270	0.00	30.182 
02:35	25.7	25.7	25.7	77	19.5	0	2	270	0.00	30.177 
02:40	25.8	25.8	25.8	77	19.6	0	2	292	0.00	30.174 
02:45	25.8	25.8	25.8	76	19.3	0	2	292	0.00	30.172 
02:50	25.8	25.8	25.8	76	19.3	0	3	0	0.00	30.173 
02:55	26.0	26.0	26.0	76	19.5	0	2	0	0.00	30.173 
03:00	26.0	26.0	26.0	76	19.5	0	3	22	0.00	30.173 
03:05	26.0	26.0	26.0	76	19.5	0	2	22	0.00	30.174 
03:10	26.0	26.0	26.0	76	19.5	0	1	22	0.00	30.175 
03:15	26.1	26.1	26.1	76	19.6	0	1	22	0.00	30.174 
03:20	26.1	26.1	26.1	76	19.6	1	3	135	0.00	30.176 
03:25	26.1	26.1	26.1	75	19.3	0	3	0	0.00	30.177 
03:30	26.1	26.1	26.1	75	19.3	0	3	90	0.00	30.176 
03:35	26.1	26.1	26.1	75	19.3	1	3	112	0.00	30.176 
03:40	26.1	26.1	26.1	76	19.6	0	2	135	0.00	30.175 
03:45	26.1	26.1	26.1	75	19.3	0	2	135	0.00	30.174 
03:50	26.0	26.0	26.0	76	19.5	0	2	90	0.00	30.173 
03:55	26.0	26.0	26.0	75	19.2	1	3	90	0.00	30.168 
04:00	25.8	25.8	25.8	75	19.0	1	4	68	0.00	30.167 
04:05	25.8	25.8	25.8	75	19.0	0	1	45	0.00	30.168 
04:10	25.7	25.7	25.7	75	18.9	0	2	45	0.00	30.172 
04:15	25.7	25.7	25.7	75	18.9	0	2	45	0.00	30.172 
04:20	25.7	25.7	25.7	75	18.9	0	1	45	0.00	30.170 
04:25	25.7	25.7	25.7	75	18.9	0	2	68	0.00	30.169 
04:30	25.7	25.7	25.7	75	18.9	0	2	68	0.00	30.160 
04:35	25.6	25.6	25.6	75	18.8	0	1	68	0.00	30.158 
04:40	25.6	25.6	25.6	75	18.8	0	3	68	0.00	30.159 
04:45	25.6	25.6	25.6	75	18.8	0	1	68	0.00	30.158 
04:50	25.6	25.6	25.6	74	18.5	0	2	68	0.00	30.160 
04:55	25.6	25.6	25.6	74	18.5	0	2	45	0.00	30.159 
05:00	25.4	25.4	25.4	73	18.0	0	2	45	0.00	30.162 
05:05	25.4	25.4	25.4	73	18.0	1	3	45	0.00	30.169 
05:10	25.4	25.4	25.4	73	18.0	1	4	90	0.00	30.170 
05:15	25.4	25.4	25.4	72	17.7	1	4	22	0.00	30.176 
05:20	25.4	25.4	25.4	71	17.3	1	5	90	0.00	30.169 
05:25	25.4	25.4	25.4	71	17.3	1	4	68	0.00	30.165 
05:30	25.4	25.4	25.4	71	17.3	2	5	90	0.00	30.162 
05:35	25.4	25.4	25.4	70	17.0	1	3	90	0.00	30.167 
05:40	25.4	25.4	25.4	71	17.3	1	3	90	0.00	30.170 
05:45	25.3	25.3	25.3	70	16.9	2	6	112	0.00	30.169 
05:50	25.3	25.3	25.3	70	16.9	1	4	90	0.00	30.171 
05:55	25.3	25.3	25.3	70	16.9	1	5	90	0.00	30.173 
06:00	25.3	25.3	25.3	70	16.9	2	6	90	0.00	30.169 
06:05	25.1	25.1	25.1	70	16.7	1	6	0	0.00	30.176 
06:10	25.1	25.1	25.1	70	16.7	1	3	22	0.00	30.170 
06:15	25.1	25.1	25.1	71	17.0	1	5	45	0.00	30.177 
06:20	25.1	25.1	25.1	71	17.0	1	5	90	0.00	30.180 
06:25	25.0	25.0	25.0	70	16.6	1	4	45	0.00	30.182 
06:30	25.0	25.0	25.0	70	16.6	2	5	112	0.00	30.185 
06:35	25.0	25.0	25.0	70	16.6	1	5	45	0.00	30.181 
06:40	25.0	25.0	25.0	70	16.6	1	4	68	0.00	30.179 
06:45	24.8	24.8	24.8	70	16.4	2	4	112	0.00	30.181 
06:50	24.8	24.8	24.8	69	16.1	2	10	112	0.00	30.186 
06:55	24.8	24.8	24.8	69	16.1	2	5	45	0.00	30.186 
07:00	24.7	24.7	24.7	69	16.0	1	5	45	0.00	30.192 
07:05	24.7	24.7	24.7	68	15.7	2	5	22	0.00	30.196 
07:10	24.7	24.7	24.7	68	15.7	2	4	90	0.00	30.190 
07:15	24.5	24.5	24.5	67	15.1	1	4	112	0.00	30.195 
07:20	24.5	24.5	24.5	65	14.4	2	6	45	0.00	30.196 
07:25	24.5	24.5	24.5	65	14.4	1	5	45	0.00	30.194 
07:30	24.4	24.4	24.4	63	13.6	2	6	112	0.00	30.195 
07:35	24.4	24.4	24.4	63	13.6	1	5	0	0.00	30.197 
07:40	24.4	24.4	24.4	63	13.6	1	4	22	0.00	30.196 
07:45	24.4	24.4	24.4	64	14.0	1	3	45	0.00	30.197 
07:50	24.4	24.4	24.4	63	13.6	2	5	112	0.00	30.195 
07:55	24.4	24.4	24.4	64	14.0	1	5	90	0.00	30.193 
08:00	24.4	24.4	24.4	64	14.0	1	7	68	0.00	30.191 
08:05	24.4	24.4	24.4	64	14.0	1	4	68	0.00	30.198 
08:10	24.4	24.4	24.4	63	13.6	2	6	45	0.00	30.200 
08:15	24.4	24.4	24.4	63	13.6	2	5	45	0.00	30.201 
08:20	24.4	24.4	24.4	62	13.3	1	4	45	0.00	30.207 
08:25	24.5	24.5	24.5	63	13.7	1	5	112	0.00	30.213 
08:30	24.5	24.5	24.5	62	13.4	2	5	112	0.00	30.214 
08:35	24.5	24.5	24.5	62	13.4	1	5	45	0.00	30.212 
08:40	24.5	24.5	24.5	61	13.0	2	5	112	0.00	30.207 
08:45	24.5	24.5	24.5	60	12.6	3	9	90	0.00	30.202 
08:50	24.5	24.5	24.5	59	12.3	2	10	22	0.00	30.200 
08:55	24.4	24.4	24.4	60	12.5	3	9	45	0.00	30.200 
09:00	24.4	24.4	24.4	60	12.5	3	7	68	0.00	30.192 
09:05	24.4	24.4	24.4	61	12.9	2	6	45	0.00	30.188 
09:10	24.5	24.5	24.5	60	12.6	2	6	45	0.00	30.185 
09:15	24.5	24.5	24.5	60	12.6	3	6	90	0.00	30.184 
09:20	24.5	24.5	24.5	60	12.6	2	8	22	0.00	30.183 
09:25	24.5	19.4	24.5	58	11.9	4	11	22	0.00	30.181 
09:30	24.4	24.4	24.4	58	11.8	2	15	45	0.00	30.180 
09:35	24.5	24.5	24.5	59	12.3	2	6	22	0.00	30.183 
09:40	24.7	24.7	24.7	59	12.4	1	5	45	0.00	30.185 
09:45	24.7	24.7	24.7	59	12.4	2	7	90	0.00	30.187 
09:50	24.7	24.7	24.7	59	12.4	2	5	22	0.00	30.190 
09:55	24.7	24.7	24.7	58	12.1	2	5	90	0.00	30.195 
10:00	24.7	24.7	24.7	58	12.1	2	6	112	0.00	30.193 
10:05	24.7	24.7	24.7	58	12.1	3	6	112	0.00	30.196 
10:10	24.7	24.7	24.7	57	11.7	2	9	22	0.00	30.192 
10:15	24.7	24.7	24.7	57	11.7	3	9	112	0.00	30.198 
10:20	24.8	24.8	24.8	58	12.1	2	6	68	0.00	30.196 
10:25	24.8	24.8	24.8	56	11.4	3	9	22	0.00	30.198 
10:30	24.8	24.8	24.8	57	11.8	2	6	112	0.00	30.199 
10:35	25.0	25.0	25.0	56	11.5	2	6	90	0.00	30.201 
10:40	25.1	25.1	25.1	56	11.6	1	4	0	0.00	30.201 
10:45	25.3	25.3	25.3	56	11.8	2	5	45	0.00	30.206 
10:50	25.1	25.1	25.1	55	11.2	2	5	45	0.00	30.205 
10:55	25.3	25.3	25.3	56	11.8	2	6	45	0.00	30.206 
11:00	25.3	25.3	25.3	55	11.4	2	6	45	0.00	30.205 
11:05	25.1	25.1	25.1	55	11.2	2	5	45	0.00	30.214 
11:10	25.1	25.1	25.1	54	10.8	3	9	45	0.00	30.216 
11:15	25.0	25.0	25.0	55	11.1	3	10	68	0.00	30.215 
11:20	25.0	25.0	25.0	55	11.1	1	5	45	0.00	30.212 
11:25	25.1	25.1	25.1	55	11.2	1	6	22	0.00	30.204 
11:30	25.3	25.3	25.3	55	11.4	2	6	45	0.00	30.202 
11:35	25.3	25.3	25.3	54	11.0	3	7	112	0.00	30.193 
11:40	25.4	25.4	25.4	56	11.9	2	6	68	0.00	30.188 
11:45	25.6	25.6	25.6	55	11.7	2	12	45	0.00	30.184 
11:50	25.6	25.6	25.6	55	11.7	2	6	45	0.00	30.183 
11:55	25.7	25.7	25.7	53	11.0	2	7	45	0.00	30.177 
12:00	25.6	25.6	25.6	53	10.9	3	11	45	0.00	30.169 
12:05	25.7	25.7	25.7	54	11.4	3	11	135	0.00	30.166 
12:10	26.0	26.0	26.0	54	11.7	2	5	45	0.00	30.158 
12:15	26.1	26.1	26.1	54	11.8	2	11	45	0.00	30.142 
12:20	26.1	26.1	26.1	52	10.9	2	11	22	0.00	30.140 
12:25	26.3	26.3	26.3	53	11.5	2	4	0	0.00	30.139 
12:30	26.4	26.4	26.4	53	11.6	2	5	45	0.00	30.139 
12:35	26.6	26.6	26.6	54	12.2	2	5	45	0.00	30.140 
12:40	26.9	26.9	26.9	52	11.7	2	5	45	0.00	30.136 
12:45	26.9	26.9	26.9	50	10.8	2	6	45	0.00	30.138 
12:50	27.0	27.0	27.0	51	11.3	2	7	45	0.00	30.139 
12:55	27.2	27.2	27.2	51	11.5	2	7	45	0.00	30.136 
13:00	27.5	27.5	27.5	50	11.3	2	10	0	0.00	30.138 
13:05	27.5	27.5	27.5	49	10.9	2	7	338	0.00	30.140 
13:10	27.5	27.5	27.5	50	11.3	2	7	22	0.00	30.140 
13:15	27.6	27.6	27.6	50	11.4	2	6	0	0.00	30.138 
13:20	27.6	27.6	27.6	50	11.4	2	6	22	0.00	30.137 
13:25	27.6	27.6	27.6	51	11.9	2	5	22	0.00	30.135 
13:30	27.8	27.8	27.8	51	12.1	2	6	22	0.00	30.120 
13:35	27.8	27.8	27.8	50	11.6	2	5	22	0.00	30.118 
13:40	28.1	28.1	28.1	50	11.9	1	5	22	0.00	30.110 
13:45	28.4	28.4	28.4	49	11.7	1	5	338	0.00	30.112 
13:50	28.5	28.5	28.5	50	12.3	2	6	22	0.00	30.109 
13:55	28.8	28.8	28.8	48	11.6	1	4	45	0.00	30.101 
14:00	29.0	29.0	29.0	48	11.8	2	7	45	0.00	30.099 
14:05	29.0	29.0	29.0	47	11.3	2	10	45	0.00	30.100 
14:10	29.1	29.1	29.1	47	11.4	2	6	22	0.00	30.103 
14:15	29.3	29.3	29.3	48	12.1	2	5	45	0.00	30.096 
14:20	29.3	29.3	29.3	45	10.6	3	8	22	0.00	30.088 
14:25	29.1	29.1	29.1	46	10.9	3	10	45	0.00	30.085 
14:30	29.4	29.4	29.4	46	11.2	2	4	45	0.00	30.085 
14:35	29.4	29.4	29.4	45	10.7	2	7	0	0.00	30.088 
14:40	29.4	29.4	29.4	45	10.7	2	6	45	0.00	30.091 
14:45	29.3	29.3	29.3	45	10.6	2	8	22	0.00	30.087 
14:50	29.5	29.5	29.5	44	10.3	3	9	112	0.00	30.081 
14:55	29.4	29.4	29.4	46	11.2	2	8	90	0.00	30.085 
15:00	29.1	29.1	29.1	47	11.4	3	10	45	0.00	30.085 
15:05	29.1	29.1	29.1	47	11.4	3	7	45	0.00	30.089 
15:10	29.1	29.1	29.1	46	10.9	2	7	22	0.00	30.086 
15:15	29.1	29.1	29.1	47	11.4	3	7	68	0.00	30.084 
15:20	29.3	29.3	29.3	45	10.6	2	7	45	0.00	30.076 
15:25	29.1	29.1	29.1	47	11.4	2	7	0	0.00	30.085 
15:30	29.1	29.1	29.1	47	11.4	2	6	45	0.00	30.086 
15:35	29.0	29.0	29.0	47	11.3	3	7	112	0.00	30.085 
15:40	29.0	29.0	29.0	47	11.3	2	7	112	0.00	30.084 
15:45	29.0	29.0	29.0	45	10.4	2	5	45	0.00	30.085 
15:50	28.8	28.8	28.8	47	11.1	2	9	45	0.00	30.078 
15:55	28.8	28.8	28.8	46	10.7	2	6	22	0.00	30.075 
16:00	28.8	28.8	28.8	46	10.7	2	6	112	0.00	30.077 
16:05	28.5	28.5	28.5	45	9.9	3	7	45	0.00	30.074 
16:10	28.4	28.4	28.4	47	10.8	2	6	45	0.00	30.070 
16:15	28.4	28.4	28.4	47	10.8	2	7	22	0.00	30.071 
16:20	28.4	28.4	28.4	47	10.8	2	5	45	0.00	30.071 
16:25	28.4	28.4	28.4	47	10.8	2	4	90	0.00	30.066 
16:30	28.2	28.2	28.2	47	10.6	2	4	45	0.00	30.068 
16:35	28.2	28.2	28.2	47	10.6	1	4	45	0.00	30.069 
16:40	28.1	28.1	28.1	46	10.0	2	6	90	0.00	30.071 
16:45	27.9	27.9	27.9	48	10.8	1	4	68	0.00	30.066 
16:50	27.9	27.9	27.9	47	10.3	2	4	68	0.00	30.064 
16:55	27.9	27.9	27.9	48	10.8	1	4	45	0.00	30.058 
17:00	27.9	27.9	27.9	48	10.8	1	3	22	0.00	30.060 
17:05	27.8	27.8	27.8	47	10.2	3	7	135	0.00	30.060 
17:10	27.6	27.6	27.6	48	10.5	1	4	22	0.00	30.059 
17:15	27.5	27.5	27.5	48	10.4	2	6	45	0.00	30.057 
17:20	27.3	27.3	27.3	48	10.2	2	7	45	0.00	30.057 
17:25	27.2	27.2	27.2	47	9.7	2	6	68	0.00	30.055 
17:30	27.0	27.0	27.0	47	9.5	2	6	45	0.00	30.053 
17:35	27.0	27.0	27.0	49	10.4	2	5	45	0.00	30.052 
17:40	27.0	27.0	27.0	50	10.9	1	5	22	0.00	30.048 
17:45	26.9	26.9	26.9	49	10.3	1	4	0	0.00	30.041 
17:50	26.7	26.7	26.7	49	10.1	2	4	22	0.00	30.034 
17:55	26.7	26.7	26.7	48	9.7	1	5	22	0.00	30.038 
18:00	26.6	26.6	26.6	48	9.6	2	6	135	0.00	30.037 
18:05	26.6	26.6	26.6	48	9.6	1	6	45	0.00	30.032 
18:10	26.6	26.6	26.6	49	10.0	1	4	45	0.00	30.035 
18:15	26.4	26.4	26.4	50	10.3	1	3	45	0.00	30.030 
18:20	26.4	26.4	26.4	49	9.9	1	5	22	0.00	30.028 
18:25	26.3	26.3	26.3	50	10.2	1	5	22	0.00	30.028 
18:30	26.3	26.3	26.3	50	10.2	0	3	338	0.00	30.029 
18:35	26.1	26.1	26.1	51	10.5	0	2	0	0.00	30.028 
18:40	26.0	26.0	26.0	51	10.4	1	4	68	0.00	30.024 
18:45	26.0	26.0	26.0	51	10.4	1	12	0	0.00	30.026 
18:50	25.8	25.8	25.8	51	10.2	1	3	0	0.00	30.023 
18:55	25.8	25.8	25.8	51	10.2	1	3	0	0.00	30.026 
19:00	25.8	25.8	25.8	51	10.2	1	3	0	0.00	30.027 
19:05	25.7	25.7	25.7	51	10.1	2	7	0	0.00	30.027 
19:10	25.6	25.6	25.6	50	9.6	2	10	0	0.00	30.025 
19:15	25.6	25.6	25.6	50	9.6	1	7	338	0.00	30.022 
19:20	25.4	25.4	25.4	51	9.8	1	4	0	0.00	30.025 
19:25	25.4	25.4	25.4	50	9.4	2	6	22	0.00	30.026 
19:30	25.3	25.3	25.3	50	9.3	1	4	338	0.00	30.026 
19:35	25.3	25.3	25.3	51	9.7	1	3	22	0.00	30.027 
19:40	25.1	25.1	25.1	52	10.0	0	3	315	0.00	30.028 
19:45	25.1	25.1	25.1	51	9.5	1	4	0	0.00	30.028 
19:50	25.1	25.1	25.1	52	10.0	1	6	22	0.00	30.025 
19:55	25.1	25.1	25.1	52	10.0	1	7	22	0.00	30.028 
20:00	25.0	25.0	25.0	52	9.9	1	6	112	0.00	30.022 
20:05	25.0	25.0	25.0	53	10.3	1	4	22	0.00	30.026 
20:10	24.8	24.8	24.8	53	10.1	1	3	22	0.00	30.021 
20:15	24.8	24.8	24.8	53	10.1	0	2	22	0.00	30.023 
20:20	24.8	24.8	24.8	53	10.1	0	4	0	0.00	30.023 
20:25	24.7	24.7	24.7	54	10.5	1	5	22	0.00	30.024 
20:30	24.7	24.7	24.7	55	10.9	1	3	315	0.00	30.025 
20:35	24.5	24.5	24.5	55	10.7	1	5	45	0.00	30.022 
20:40	24.4	24.4	24.4	55	10.6	1	4	45	0.00	30.025 
20:45	24.4	24.4	24.4	56	11.0	1	2	45	0.00	30.024 
20:50	24.2	24.2	24.2	55	10.4	2	9	22	0.00	30.017 
20:55	24.2	24.2	24.2	55	10.4	1	6	68	0.00	30.019 
21:00	24.1	24.1	24.1	56	10.7	1	6	0	0.00	30.027 
21:05	24.1	24.1	24.1	55	10.3	1	6	22	0.00	30.023 
21:10	23.9	23.9	23.9	55	10.1	1	4	22	0.00	30.015 
21:15	23.9	23.9	23.9	55	10.1	1	3	22	0.00	30.014 
21:20	23.9	23.9	23.9	57	10.9	1	3	90	0.00	30.012 
21:25	23.8	23.8	23.8	53	9.2	1	5	90	0.00	30.009 
21:30	23.8	23.8	23.8	53	9.2	1	4	90	0.00	30.012 
21:35	23.6	23.6	23.6	52	8.6	2	6	22	0.00	30.013 
21:40	23.6	23.6	23.6	52	8.6	2	5	22	0.00	30.011 
21:45	23.5	23.5	23.5	54	9.3	1	4	22	0.00	30.011 
21:50	23.5	23.5	23.5	54	9.3	2	10	68	0.00	30.002 
21:55	23.3	23.3	23.3	54	9.1	1	5	0	0.00	30.009 
22:00	23.3	23.3	23.3	54	9.1	2	12	22	0.00	29.998 
22:05	23.3	23.3	23.3	56	10.0	1	4	68	0.00	30.002 
22:10	23.2	23.2	23.2	56	9.9	2	6	22	0.00	30.010 
22:15	23.2	23.2	23.2	56	9.9	1	4	338	0.00	30.012 
22:20	23.0	23.0	23.0	57	10.1	1	5	22	0.00	30.003 
22:25	23.0	23.0	23.0	58	10.5	1	5	338	0.00	30.000 
22:30	23.0	23.0	23.0	58	10.5	1	4	22	0.00	29.996 
22:35	22.9	22.9	22.9	60	11.1	1	3	22	0.00	29.998 
22:40	22.9	22.9	22.9	60	11.1	2	6	22	0.00	29.999 
22:45	22.9	22.9	22.9	61	11.5	1	7	0	0.00	30.001 
22:50	22.7	22.7	22.7	62	11.7	1	4	90	0.00	30.004 
22:55	22.7	22.7	22.7	62	11.7	2	7	68	0.00	30.008 
23:00	22.5	22.5	22.5	64	12.2	2	6	45	0.00	30.014 
23:05	22.4	22.4	22.4	65	12.4	2	9	0	0.00	30.013 
23:10	22.2	22.2	22.2	67	12.9	2	6	135	0.00	30.013 
23:15	22.1	22.1	22.1	68	13.2	2	7	338	0.00	30.011 
23:20	21.9	21.9	21.9	69	13.3	2	7	90	0.00	30.004 
23:25	21.9	21.9	21.9	70	13.6	1	5	112	0.00	30.005 
23:30	21.8	21.8	21.8	71	13.9	1	5	112	0.00	29.997 
23:35	21.6	21.6	21.6	72	14.0	1	4	45	0.00	29.991 
23:40	21.6	21.6	21.6	73	14.3	1	5	68	0.00	29.984 
23:45	21.4	21.4	21.4	73	14.1	2	5	68	0.00	29.983 
23:50	21.3	21.3	21.3	73	14.0	2	5	45	0.00	29.981 
23:55	21.3	21.3	21.3	73	14.0	2	6	338	0.00	29.978 

CoCoRaHS
IN-AL-39
A2 Web Hosting
Creative Commons License
GoDaddy
Look for:

loaded 2017-10-17 22:09:16 • last modified 2010-11-18 10:43:29
Privacy PolicyDisclaimer
• wx.awcolley.com is powered by PmWiki v.2002016 •
• all content (unless otherwise noted) © 2017 A W Colley